Time;durP1;ratioP1;P1;durP2;ratioP2;P2;SDS_P1;SDS_P2;PMS_P1;PMS_P2;Temp;Humidity;BMP_temperature;BMP_pressure;BME280_temperature;BME280_humidity;BME280_pressure;Samples;Min_cycle;Max_cycle;Signal;HPM_P1;HPM_P2
2022/06/18 00:04:39;;;;;;;3.33;2.00;;;19.50;98.50;;;;;;10191959;29;20051;-63
2022/06/18 00:09:44;;;;;;;4.40;2.35;;;19.40;99.00;;;;;;10191938;28;20062;-62
2022/06/18 00:14:46;;;;;;;14.98;2.80;;;19.30;99.40;;;;;;10194187;29;20118;-63
2022/06/18 00:19:49;;;;;;;5.20;2.78;;;19.20;99.40;;;;;;10193610;29;20051;-63
2022/06/18 00:24:52;;;;;;;7.80;1.83;;;19.10;99.90;;;;;;10192619;29;20063;-63
2022/06/18 00:29:54;;;;;;;3.15;1.48;;;19.10;99.90;;;;;;10193578;29;20725;-63
2022/06/18 00:34:55;;;;;;;6.00;1.60;;;19.00;99.90;;;;;;10189101;29;20487;-62
2022/06/18 00:39:58;;;;;;;3.60;1.20;;;18.90;99.90;;;;;;10177428;29;20103;-63
2022/06/18 00:45:01;;;;;;;1.67;0.60;;;18.80;99.90;;;;;;10192770;29;20554;-63
2022/06/18 00:50:23;;;;;;;2.50;0.60;;;18.70;99.90;;;;;;10191526;29;20056;-63
2022/06/18 00:55:40;;;;;;;1.80;0.45;;;18.50;99.90;;;;;;10192075;29;20063;-63
2022/06/18 01:00:50;;;;;;;1.35;0.43;;;18.50;99.80;;;;;;10191669;28;20625;-63
2022/06/18 01:05:53;;;;;;;1.45;0.63;;;18.50;99.90;;;;;;10191072;29;20051;-63
2022/06/18 01:11:01;;;;;;;5.25;0.60;;;18.40;99.90;;;;;;10173089;29;20566;-64
2022/06/18 01:16:06;;;;;;;2.17;0.95;;;18.30;99.90;;;;;;10189848;29;20115;-64
2022/06/18 01:21:16;;;;;;;1.08;0.52;;;18.20;99.90;;;;;;10190238;28;20126;-64
2022/06/18 01:26:20;;;;;;;2.35;0.60;;;18.10;99.90;;;;;;10175157;29;20051;-64
2022/06/18 01:31:21;;;;;;;1.42;0.68;;;18.10;99.90;;;;;;10189525;29;20055;-64
2022/06/18 01:36:25;;;;;;;1.90;0.60;;;18.00;99.90;;;;;;10187910;29;20056;-63
2022/06/18 01:41:52;;;;;;;1.90;0.52;;;18.00;99.90;;;;;;10188783;29;20051;-63
2022/06/18 01:46:59;;;;;;;1.20;0.50;;;17.90;99.90;;;;;;10189111;29;20060;-63
2022/06/18 01:52:03;;;;;;;1.15;0.50;;;17.90;99.90;;;;;;10186591;29;20056;-64
2022/06/18 01:57:12;;;;;;;0.90;0.68;;;17.80;99.90;;;;;;10189736;29;20054;-64
2022/06/18 02:02:15;;;;;;;1.50;0.63;;;17.80;99.90;;;;;;10188127;29;20142;-63
2022/06/18 02:07:18;;;;;;;3.25;0.63;;;17.70;99.90;;;;;;10193137;29;20545;-64
2022/06/18 02:12:24;;;;;;;2.15;0.63;;;17.60;99.90;;;;;;10189613;29;20138;-62
2022/06/18 02:17:27;;;;;;;2.22;0.70;;;17.50;99.90;;;;;;10187459;29;20063;-64
2022/06/18 02:22:34;;;;;;;1.80;0.40;;;17.40;99.90;;;;;;10192008;29;20146;-64
2022/06/18 02:27:37;;;;;;;;;;;17.30;99.90;;;;;;10189948;29;20684;-64
2022/06/18 02:32:45;;;;;;;2.90;0.70;;;17.20;99.90;;;;;;10186494;29;19930;-64
2022/06/18 02:37:47;;;;;;;1.67;0.50;;;17.20;99.90;;;;;;10187725;29;20063;-63
2022/06/18 02:42:51;;;;;;;2.67;0.50;;;17.20;99.90;;;;;;10191127;29;20083;-64
2022/06/18 02:47:56;;;;;;;0.52;0.30;;;17.10;99.90;;;;;;10191076;29;20059;-64
2022/06/18 02:53:01;;;;;;;1.00;0.50;;;16.90;99.90;;;;;;10188998;29;20631;-63
2022/06/18 02:58:05;;;;;;;1.20;0.50;;;16.90;99.90;;;;;;10184731;29;20058;-63
2022/06/18 03:03:11;;;;;;;1.02;0.50;;;16.90;99.90;;;;;;10189398;29;20442;-63
2022/06/18 03:08:14;;;;;;;4.60;0.85;;;16.90;99.90;;;;;;10190198;29;20399;-63
2022/06/18 03:13:19;;;;;;;0.68;0.40;;;16.80;99.90;;;;;;10190937;29;20118;-66
2022/06/18 03:18:24;;;;;;;2.58;0.50;;;16.80;99.90;;;;;;10186659;29;20396;-66
2022/06/18 03:23:26;;;;;;;1.35;0.50;;;16.70;99.90;;;;;;10187743;29;20055;-66
2022/06/18 03:28:29;;;;;;;0.90;0.50;;;16.70;99.90;;;;;;10190562;29;20139;-66
2022/06/18 03:33:30;;;;;;;4.00;0.50;;;16.70;99.90;;;;;;10186777;29;20055;-67
2022/06/18 03:38:32;;;;;;;3.15;0.40;;;16.70;99.90;;;;;;10187880;29;20059;-67
2022/06/18 03:43:34;;;;;;;2.15;0.60;;;16.70;99.90;;;;;;10188463;29;20071;-67
2022/06/18 03:48:57;;;;;;;1.88;0.40;;;16.70;99.90;;;;;;10189009;29;20079;-66
2022/06/18 03:53:59;;;;;;;3.45;0.50;;;16.70;99.90;;;;;;10191568;28;20056;-66
2022/06/18 03:59:01;;;;;;;0.90;0.40;;;16.80;99.90;;;;;;10194339;29;20063;-67
2022/06/18 04:04:03;;;;;;;6.05;1.15;;;16.80;99.90;;;;;;10196872;29;20054;-67
2022/06/18 04:09:06;;;;;;;1.02;0.52;;;16.90;99.90;;;;;;10196311;29;20059;-67
2022/06/18 04:14:07;;;;;;;0.77;0.57;;;17.00;99.90;;;;;;10194356;29;20062;-67
2022/06/18 04:19:10;;;;;;;2.22;0.50;;;17.00;99.90;;;;;;10193691;29;20423;-67
2022/06/18 04:24:12;;;;;;;0.90;0.50;;;17.00;99.90;;;;;;10193943;29;20067;-66
2022/06/18 04:29:13;;;;;;;0.88;0.30;;;17.10;99.90;;;;;;10192970;29;20083;-66
2022/06/18 04:34:15;;;;;;;0.95;0.45;;;17.20;99.90;;;;;;10193984;29;20070;-66
2022/06/18 04:39:16;;;;;;;2.53;0.50;;;17.30;99.90;;;;;;10192590;29;20110;-67
2022/06/18 04:44:18;;;;;;;0.93;0.40;;;17.40;99.90;;;;;;10191357;29;20067;-66
2022/06/18 04:49:20;;;;;;;3.47;0.50;;;17.50;99.90;;;;;;10194869;29;20059;-66
2022/06/18 04:54:22;;;;;;;2.35;0.73;;;17.70;99.90;;;;;;10188810;29;20084;-67
2022/06/18 04:59:24;;;;;;;1.92;1.20;;;17.90;99.90;;;;;;10192568;29;20205;-67
2022/06/18 05:04:26;;;;;;;1.70;0.80;;;18.00;99.90;;;;;;10190982;29;20055;-67
2022/06/18 05:09:27;;;;;;;5.63;1.08;;;18.20;99.90;;;;;;10193099;29;20088;-67
2022/06/18 05:14:30;;;;;;;1.98;1.08;;;18.40;99.90;;;;;;10193064;29;20067;-67
2022/06/18 05:19:34;;;;;;;3.90;1.00;;;18.60;99.90;;;;;;10192693;29;20056;-67
2022/06/18 05:24:36;;;;;;;3.72;0.93;;;18.80;99.90;;;;;;10192936;29;20419;-67
2022/06/18 05:29:38;;;;;;;3.95;1.00;;;19.00;99.90;;;;;;10194131;29;20063;-67
2022/06/18 05:34:40;;;;;;;6.90;1.08;;;19.20;99.90;;;;;;10190702;29;20056;-67
2022/06/18 05:39:41;;;;;;;5.20;1.40;;;19.40;99.90;;;;;;10188242;29;20400;-67
2022/06/18 05:44:49;;;;;;;3.00;1.23;;;19.60;99.90;;;;;;10190682;29;20051;-67
2022/06/18 05:49:52;;;;;;;2.47;0.90;;;19.80;99.90;;;;;;10176282;29;20059;-67
2022/06/18 05:54:54;;;;;;;2.22;1.33;;;20.00;99.90;;;;;;10192981;29;20056;-67
2022/06/18 05:59:55;;;;;;;4.47;1.40;;;20.20;99.90;;;;;;10187425;29;20051;-67
2022/06/18 06:04:57;;;;;;;3.00;1.48;;;20.40;99.90;;;;;;10186582;29;20103;-68
2022/06/18 06:15:19;;;;;;;2.92;0.68;;;20.80;99.90;;;;;;10188588;29;20051;-66
2022/06/18 06:20:31;;;;;;;1.50;0.93;;;21.20;99.90;;;;;;10170456;29;20177;-66
2022/06/18 06:25:34;;;;;;;1.67;0.77;;;21.40;98.30;;;;;;10188441;29;20063;-67
2022/06/18 06:30:36;;;;;;;1.50;0.57;;;21.70;97.60;;;;;;10190175;29;20056;-66
2022/06/18 06:35:38;;;;;;;7.53;0.60;;;22.00;96.40;;;;;;10186272;29;20056;-67
2022/06/18 06:40:43;;;;;;;2.03;0.60;;;22.10;95.80;;;;;;10184704;29;20508;-67
2022/06/18 06:45:45;;;;;;;3.80;0.82;;;22.40;95.30;;;;;;10184186;29;20123;-67
2022/06/18 06:50:50;;;;;;;1.67;0.50;;;22.60;94.90;;;;;;10186930;29;20538;-67
2022/06/18 07:01:13;;;;;;;5.07;0.40;;;23.00;92.40;;;;;;10188412;29;20052;-67
2022/06/18 07:06:16;;;;;;;4.60;0.30;;;23.20;91.80;;;;;;10190297;29;20173;-67
2022/06/18 07:11:18;;;;;;;0.65;0.45;;;23.30;90.10;;;;;;10188164;29;20559;-67
2022/06/18 07:16:20;;;;;;;2.05;0.50;;;23.50;89.60;;;;;;10187761;29;20125;-67
2022/06/18 07:21:22;;;;;;;1.02;0.57;;;23.80;87.20;;;;;;10189976;29;20055;-67
2022/06/18 07:26:24;;;;;;;2.05;0.50;;;24.00;85.30;;;;;;10192649;29;20064;-66
2022/06/18 07:31:32;;;;;;;1.65;0.47;;;24.10;84.60;;;;;;10194875;29;20600;-66
2022/06/18 07:36:34;;;;;;;1.17;0.50;;;24.30;83.70;;;;;;10178416;29;20740;-67
2022/06/18 07:41:42;;;;;;;2.75;0.57;;;24.50;83.90;;;;;;10195651;29;20054;-67
2022/06/18 07:46:45;;;;;;;2.65;0.50;;;24.70;82.20;;;;;;10193738;29;20140;-67
2022/06/18 07:51:47;;;;;;;0.95;0.43;;;24.90;81.30;;;;;;10193299;29;20159;-67
2022/06/18 07:56:49;;;;;;;1.95;0.60;;;25.10;80.20;;;;;;10195458;29;20055;-67
2022/06/18 08:01:52;;;;;;;0.50;0.40;;;25.20;78.70;;;;;;10193458;29;20048;-67
2022/06/18 08:06:54;;;;;;;1.77;0.50;;;25.20;78.00;;;;;;10187646;29;20126;-67
2022/06/18 08:11:55;;;;;;;0.95;0.50;;;25.40;77.10;;;;;;10186403;29;20083;-69
2022/06/18 08:16:57;;;;;;;4.47;0.60;;;25.60;76.80;;;;;;10187882;29;20091;-68
2022/06/18 08:21:59;;;;;;;1.10;0.50;;;25.70;77.20;;;;;;10189213;29;20056;-67
2022/06/18 08:27:01;;;;;;;1.48;0.50;;;25.80;76.10;;;;;;10195306;29;20123;-68
2022/06/18 08:32:03;;;;;;;3.70;0.57;;;26.00;76.80;;;;;;10190539;29;20490;-67
2022/06/18 08:37:07;;;;;;;4.22;0.45;;;26.20;76.10;;;;;;10189647;29;20147;-67
2022/06/18 08:42:22;;;;;;;3.65;0.57;;;26.30;75.10;;;;;;10165608;29;20072;-64
2022/06/18 08:47:58;;;;;;;0.70;0.40;;;26.40;74.40;;;;;;10192482;29;20553;-63
2022/06/18 08:53:42;;;;;;;1.53;0.47;;;26.60;74.20;;;;;;10188206;29;20052;-63
2022/06/18 08:59:04;;;;;;;3.72;0.50;;;27.00;74.40;;;;;;10191576;29;20115;-63
2022/06/18 09:04:28;;;;;;;1.27;0.32;;;27.30;71.30;;;;;;10189725;29;20063;-63
2022/06/18 09:09:55;;;;;;;2.88;0.50;;;27.40;71.10;;;;;;10184584;29;20064;-63
2022/06/18 09:15:11;;;;;;;4.65;0.50;;;27.80;70.60;;;;;;10184184;29;20450;-63
2022/06/18 09:20:21;;;;;;;0.80;0.50;;;27.90;69.40;;;;;;10148277;29;20150;-66
2022/06/18 09:25:28;;;;;;;1.80;0.70;;;28.30;69.00;;;;;;10186533;29;20063;-63
2022/06/18 09:30:39;;;;;;;1.08;0.60;;;28.50;67.20;;;;;;10186506;29;20113;-63
2022/06/18 09:35:48;;;;;;;1.75;0.40;;;28.70;67.10;;;;;;10188589;29;20383;-63
2022/06/18 09:40:53;;;;;;;2.67;0.40;;;28.90;66.50;;;;;;10187584;29;20630;-64
2022/06/18 09:45:59;;;;;;;2.30;0.40;;;29.00;66.10;;;;;;10166475;29;20060;-64
2022/06/18 09:51:09;;;;;;;3.03;0.50;;;29.10;65.30;;;;;;10190407;28;20159;-63
2022/06/18 09:56:14;;;;;;;2.47;0.40;;;29.40;64.90;;;;;;10188690;29;20095;-64
2022/06/18 10:01:20;;;;;;;3.38;0.40;;;29.50;64.30;;;;;;10192765;29;20115;-64
2022/06/18 10:12:12;;;;;;;1.25;0.50;;;29.80;62.80;;;;;;10189790;29;20051;-64
2022/06/18 10:17:30;;;;;;;3.72;0.40;;;30.00;61.90;;;;;;10187763;29;20044;-64
2022/06/18 10:23:03;;;;;;;1.90;0.43;;;30.20;61.50;;;;;;10187206;29;20118;-64
2022/06/18 10:28:14;;;;;;;0.50;0.50;;;30.30;61.40;;;;;;10187066;29;20107;-64
2022/06/18 10:33:29;;;;;;;7.03;0.43;;;30.50;60.90;;;;;;10187154;29;20119;-64
2022/06/18 10:38:38;;;;;;;1.85;0.70;;;30.90;60.90;;;;;;10186676;29;20055;-64
2022/06/18 10:44:14;;;;;;;0.73;0.50;;;31.00;59.90;;;;;;10184224;29;20122;-63
2022/06/18 10:49:24;;;;;;;1.92;0.47;;;31.30;59.30;;;;;;10183820;29;20055;-63
2022/06/18 10:54:35;;;;;;;1.15;0.80;;;31.60;59.00;;;;;;10186710;29;20051;-64
2022/06/18 10:59:39;;;;;;;3.07;0.43;;;31.70;57.90;;;;;;10184876;29;20063;-63
2022/06/18 11:04:49;;;;;;;2.37;0.50;;;31.90;57.50;;;;;;10193635;29;20052;-63
2022/06/18 11:10:03;;;;;;;5.30;0.50;;;32.30;57.20;;;;;;10194481;29;20051;-63
2022/06/18 11:15:24;;;;;;;6.70;0.57;;;32.40;56.50;;;;;;10193399;29;20135;-63
2022/06/18 11:20:29;;;;;;;2.00;0.90;;;32.50;55.70;;;;;;10196632;29;20056;-63
2022/06/18 11:25:43;;;;;;;0.80;0.50;;;33.00;55.70;;;;;;10194599;29;20094;-63
2022/06/18 11:30:52;;;;;;;1.63;0.57;;;33.00;54.70;;;;;;10196776;29;20387;-63
2022/06/18 11:35:54;;;;;;;3.70;0.50;;;33.10;54.20;;;;;;10196083;29;20090;-63
2022/06/18 11:41:00;;;;;;;2.50;0.57;;;32.90;53.70;;;;;;10193243;29;20107;-63
2022/06/18 11:46:09;;;;;;;5.15;0.77;;;33.30;54.10;;;;;;10191817;29;20118;-63
2022/06/18 11:51:58;;;;;;;2.08;0.50;;;33.40;53.10;;;;;;10193780;29;20052;-63
2022/06/18 11:57:16;;;;;;;1.92;0.60;;;33.50;52.20;;;;;;10100354;29;20068;-63
2022/06/18 12:02:22;;;;;;;6.60;0.60;;;33.70;52.50;;;;;;10195643;29;20051;-64
2022/06/18 12:07:28;;;;;;;3.75;0.70;;;34.00;51.50;;;;;;10192973;29;20063;-63
2022/06/18 12:12:44;;;;;;;6.75;0.90;;;33.60;51.90;;;;;;10192741;29;20056;-63
2022/06/18 12:18:22;;;;;;;7.72;1.30;;;34.00;51.70;;;;;;10196631;29;20060;-63
2022/06/18 12:23:34;;;;;;;2.63;0.57;;;34.20;51.60;;;;;;10183445;29;20147;-63
2022/06/18 12:28:55;;;;;;;1.55;0.65;;;34.20;51.20;;;;;;10191234;29;20621;-63
2022/06/18 12:34:10;;;;;;;3.95;0.50;;;34.00;50.50;;;;;;10188512;29;20056;-64
2022/06/18 12:39:49;;;;;;;6.18;0.60;;;34.20;50.90;;;;;;10194506;29;20746;-63
2022/06/18 12:44:58;;;;;;;3.33;0.70;;;34.40;49.70;;;;;;10193382;29;20074;-63
2022/06/18 12:50:26;;;;;;;7.47;0.70;;;34.30;48.10;;;;;;10186932;29;20066;-64
2022/06/18 12:55:48;;;;;;;5.57;0.52;;;34.70;48.30;;;;;;10194506;29;20060;-63
2022/06/18 13:01:28;;;;;;;3.25;0.60;;;35.00;47.20;;;;;;10194552;29;20051;-64
2022/06/18 13:06:41;;;;;;;5.70;0.63;;;35.00;46.70;;;;;;10076435;29;20124;-64
2022/06/18 13:12:05;;;;;;;3.15;0.60;;;35.20;46.10;;;;;;10175482;29;20052;-64
2022/06/18 13:17:16;;;;;;;6.13;1.40;;;35.30;46.00;;;;;;10189052;29;20060;-64
2022/06/18 13:22:18;;;;;;;5.30;0.75;;;35.20;45.90;;;;;;10196755;29;20078;-64
2022/06/18 13:33:03;;;;;;;5.22;1.15;;;35.40;44.60;;;;;;10190242;29;20048;-64
2022/06/18 13:38:22;;;;;;;6.47;0.93;;;35.30;43.80;;;;;;10195591;29;20052;-64
2022/06/18 13:43:47;;;;;;;4.82;0.70;;;35.40;43.80;;;;;;10191814;29;20082;-64
2022/06/18 13:49:13;;;;;;;13.32;0.80;;;35.70;42.90;;;;;;10190978;29;20079;-64
2022/06/18 13:54:17;;;;;;;9.55;0.75;;;35.80;42.50;;;;;;10188828;29;20058;-64
2022/06/18 13:59:21;;;;;;;7.60;0.82;;;36.10;42.30;;;;;;10191786;29;20051;-64
2022/06/18 14:04:32;;;;;;;11.85;1.15;;;36.20;42.50;;;;;;10183031;29;20064;-64
2022/06/18 14:09:54;;;;;;;9.25;0.55;;;36.40;40.40;;;;;;10187922;28;20055;-63
2022/06/18 14:15:17;;;;;;;15.43;1.02;;;36.70;40.60;;;;;;10186311;29;20055;-63
2022/06/18 14:20:29;;;;;;;5.80;0.93;;;36.60;40.60;;;;;;10189971;29;20043;-63
2022/06/18 14:25:56;;;;;;;6.82;0.70;;;36.60;40.20;;;;;;10171697;29;20059;-63
2022/06/18 14:31:27;;;;;;;13.13;0.80;;;36.90;39.70;;;;;;10183808;29;20056;-62
2022/06/18 14:36:35;;;;;;;7.70;0.85;;;36.70;39.60;;;;;;10179952;29;20046;-62
2022/06/18 14:41:37;;;;;;;7.82;0.57;;;37.10;39.30;;;;;;10184999;29;20070;-62
2022/06/18 14:47:15;;;;;;;15.77;1.20;;;37.00;39.40;;;;;;10187264;29;20504;-62
2022/06/18 14:52:25;;;;;;;14.20;0.90;;;36.80;38.30;;;;;;10179644;29;20139;-63
2022/06/18 14:57:36;;;;;;;8.65;1.10;;;37.00;39.00;;;;;;10183558;29;20063;-62
2022/06/18 15:02:49;;;;;;;10.77;1.45;;;37.00;39.50;;;;;;10186670;29;20095;-62
2022/06/18 15:07:51;;;;;;;11.52;0.80;;;37.60;40.00;;;;;;10187806;29;20056;-63
2022/06/18 15:12:54;;;;;;;6.85;1.05;;;36.90;38.80;;;;;;10188923;29;20811;-63
2022/06/18 15:23:11;;;;;;;10.30;1.15;;;37.20;38.50;;;;;;10186179;29;20052;-62
2022/06/18 15:28:20;;;;;;;4.85;0.70;;;37.20;37.60;;;;;;10189953;29;20060;-62
2022/06/18 15:33:25;;;;;;;6.40;1.23;;;37.40;38.00;;;;;;10185735;29;20120;-62
2022/06/18 15:38:33;;;;;;;8.82;0.80;;;37.60;38.20;;;;;;10186922;29;20048;-63
2022/06/18 15:43:47;;;;;;;11.57;0.70;;;37.50;38.40;;;;;;10188511;29;20064;-63
2022/06/18 15:48:50;;;;;;;;;;;37.70;38.30;;;;;;10194807;29;20071;-63
2022/06/18 15:54:31;;;;;;;3.72;0.55;;;37.60;37.90;;;;;;10198817;29;19923;-63
2022/06/18 15:59:33;;;;;;;11.60;1.15;;;38.00;38.30;;;;;;10194508;29;20063;-63
2022/06/18 16:04:43;;;;;;;9.05;0.88;;;38.00;39.90;;;;;;10198370;29;20062;-63
2022/06/18 16:09:57;;;;;;;9.43;0.98;;;37.80;38.90;;;;;;10192202;29;20060;-69
2022/06/18 16:15:02;;;;;;;8.40;0.75;;;37.70;38.80;;;;;;10190785;29;20542;-62
2022/06/18 16:20:22;;;;;;;5.55;0.77;;;37.50;39.60;;;;;;10192860;29;20055;-63
2022/06/18 16:25:31;;;;;;;5.13;0.95;;;37.30;39.90;;;;;;10199685;29;20063;-63
2022/06/18 16:30:37;;;;;;;5.03;0.57;;;37.80;40.20;;;;;;10175042;29;20059;-63
2022/06/18 16:35:40;;;;;;;5.22;0.80;;;37.60;40.20;;;;;;10192919;29;20104;-64
2022/06/18 16:40:42;;;;;;;9.25;1.00;;;37.50;40.30;;;;;;10191340;29;20063;-63
2022/06/18 16:45:43;;;;;;;6.97;0.52;;;37.40;40.40;;;;;;10192504;29;20072;-63
2022/06/18 16:50:48;;;;;;;5.50;0.45;;;37.30;40.80;;;;;;10191631;29;20123;-63
2022/06/18 16:55:51;;;;;;;8.13;0.68;;;37.00;41.00;;;;;;10191741;29;20052;-64
2022/06/18 17:00:53;;;;;;;6.13;0.98;;;36.80;40.50;;;;;;10192465;29;20048;-63
2022/06/18 17:05:55;;;;;;;10.73;0.80;;;36.70;42.40;;;;;;10191543;29;20107;-63
2022/06/18 17:11:06;;;;;;;5.47;0.90;;;36.80;41.90;;;;;;10191636;29;20054;-63
2022/06/18 17:16:08;;;;;;;10.48;1.20;;;37.00;40.80;;;;;;10191736;29;20574;-63
2022/06/18 17:21:10;;;;;;;3.97;0.60;;;36.80;40.70;;;;;;10190448;29;20044;-63
2022/06/18 17:31:36;;;;;;;9.50;0.70;;;36.60;41.60;;;;;;10192645;29;20056;-63
2022/06/18 17:36:40;;;;;;;10.02;1.35;;;36.40;41.50;;;;;;10189797;29;20056;-63
2022/06/18 17:41:41;;;;;;;8.10;0.80;;;36.10;40.60;;;;;;10190141;29;20107;-63
2022/06/18 17:46:43;;;;;;;8.98;0.68;;;35.90;41.80;;;;;;10191246;29;20063;-63
2022/06/18 17:51:45;;;;;;;12.13;0.80;;;35.90;40.80;;;;;;10191441;29;20091;-62
2022/06/18 17:56:46;;;;;;;10.98;0.98;;;35.80;41.00;;;;;;10190277;28;22432;-64
2022/06/18 18:01:56;;;;;;;10.48;1.40;;;35.60;41.20;;;;;;10185697;29;20063;-63
2022/06/18 18:06:59;;;;;;;9.82;0.98;;;35.40;42.40;;;;;;10181173;29;20110;-64
2022/06/18 18:12:01;;;;;;;11.82;1.02;;;35.40;44.40;;;;;;10186610;29;20043;-64
2022/06/18 18:17:04;;;;;;;11.00;1.15;;;35.30;46.30;;;;;;10187812;29;20059;-64
2022/06/18 18:22:06;;;;;;;17.38;1.15;;;35.00;45.50;;;;;;10188186;29;20086;-63
2022/06/18 18:27:14;;;;;;;18.77;2.22;;;34.80;46.90;;;;;;10182969;29;20577;-63
2022/06/18 18:32:19;;;;;;;13.10;0.95;;;34.50;46.90;;;;;;10175150;29;20058;-64
2022/06/18 18:37:21;;;;;;;;;;;34.20;48.70;;;;;;10149130;29;20131;-63
2022/06/18 18:42:23;;;;;;;5.40;0.82;;;33.90;48.10;;;;;;10179463;29;19923;-63
2022/06/18 18:59:09;;;;;;;11.98;1.20;;;32.90;50.20;;;;;;10247363;23;20541;-65
2022/06/18 19:04:11;;;;;;;12.77;1.98;;;32.60;51.60;;;;;;10208839;28;20055;-64
2022/06/18 19:09:13;;;;;;;9.40;1.52;;;32.40;51.40;;;;;;10209298;28;20087;-64
2022/06/18 19:14:14;;;;;;;21.30;1.85;;;32.20;51.80;;;;;;10211533;28;20047;-63
2022/06/18 19:19:16;;;;;;;25.40;3.65;;;31.80;55.60;;;;;;10217291;29;20102;-63
2022/06/18 19:24:18;;;;;;;14.57;1.60;;;31.60;56.90;;;;;;10214160;29;20051;-59
2022/06/18 19:29:20;;;;;;;16.08;1.90;;;31.10;57.30;;;;;;10236088;29;20059;-60
2022/06/18 19:34:21;;;;;;;12.02;3.35;;;30.90;59.10;;;;;;10238614;29;20059;-60
2022/06/18 19:39:29;;;;;;;13.70;2.22;;;30.50;62.40;;;;;;10241765;28;20063;-67
2022/06/18 19:44:31;;;;;;;10.70;1.67;;;30.20;60.10;;;;;;10232366;29;20058;-61
2022/06/18 19:49:33;;;;;;;16.70;2.78;;;29.80;60.40;;;;;;10229294;29;20040;-61
2022/06/18 19:54:35;;;;;;;10.48;1.77;;;29.60;63.70;;;;;;10231085;29;20256;-61
2022/06/18 19:59:37;;;;;;;8.75;1.30;;;29.30;65.50;;;;;;10228877;28;20051;-61
2022/06/18 20:04:39;;;;;;;12.88;1.67;;;29.10;65.40;;;;;;10234526;29;20514;-62
2022/06/18 20:09:42;;;;;;;12.13;1.60;;;28.80;67.60;;;;;;10235220;29;20062;-61
2022/06/18 20:14:45;;;;;;;10.32;1.45;;;28.50;69.00;;;;;;10227652;29;20115;-61
2022/06/18 20:19:46;;;;;;;9.75;2.00;;;28.20;70.60;;;;;;10220537;29;20055;-61
2022/06/18 20:24:48;;;;;;;13.43;1.55;;;28.00;72.10;;;;;;10228446;29;20127;-57
2022/06/18 20:29:50;;;;;;;8.73;1.58;;;27.70;73.60;;;;;;10197696;29;20107;-58
2022/06/18 20:34:52;;;;;;;13.80;1.55;;;27.60;75.70;;;;;;10213068;28;20048;-57
2022/06/18 20:39:53;;;;;;;12.65;2.00;;;27.40;76.30;;;;;;10218129;29;20059;-58
2022/06/18 20:44:55;;;;;;;10.35;1.55;;;27.30;77.00;;;;;;10211682;28;20455;-57
2022/06/18 20:49:58;;;;;;;14.63;1.83;;;27.10;78.40;;;;;;10215125;29;20054;-58
2022/06/18 21:00:20;;;;;;;10.77;1.55;;;26.80;81.60;;;;;;10211216;29;20125;-58
2022/06/18 21:05:24;;;;;;;8.13;1.50;;;26.60;82.10;;;;;;10214645;29;20062;-58
2022/06/18 21:10:28;;;;;;;11.25;2.15;;;26.40;83.00;;;;;;10213204;29;20349;-59
2022/06/18 21:15:30;;;;;;;12.05;2.83;;;26.40;84.30;;;;;;10209017;29;20470;-58
2022/06/18 21:20:33;;;;;;;15.43;3.28;;;26.20;86.50;;;;;;10215517;29;21655;-59
2022/06/18 21:25:40;;;;;;;11.13;2.28;;;26.00;86.60;;;;;;10212039;29;20051;-58
2022/06/18 21:30:43;;;;;;;7.68;1.50;;;25.80;87.30;;;;;;10211511;29;20482;-59
2022/06/18 21:41:09;;;;;;;17.98;2.20;;;25.40;87.50;;;;;;10208666;29;20110;-59
2022/06/18 21:46:13;;;;;;;11.63;1.47;;;25.20;86.90;;;;;;10212401;29;20118;-58
2022/06/18 21:51:15;;;;;;;11.05;1.27;;;25.10;86.50;;;;;;10211843;29;20055;-58
2022/06/18 21:56:20;;;;;;;7.83;1.40;;;24.90;86.10;;;;;;10212958;28;20449;-58
2022/06/18 22:01:22;;;;;;;12.68;1.48;;;24.70;87.30;;;;;;10193806;29;20063;-59
2022/06/18 22:06:24;;;;;;;9.45;1.15;;;24.70;87.10;;;;;;10197770;29;20138;-58
2022/06/18 22:11:25;;;;;;;9.10;1.88;;;24.60;88.60;;;;;;10193267;29;20070;-58
2022/06/18 22:21:48;;;;;;;11.48;2.00;;;24.40;90.10;;;;;;10188785;29;20059;-58
2022/06/18 22:26:51;;;;;;;9.77;1.67;;;24.10;90.20;;;;;;10212305;28;20482;-59
2022/06/18 22:31:54;;;;;;;9.43;1.45;;;24.10;90.40;;;;;;10210724;29;20059;-58
2022/06/18 22:36:55;;;;;;;7.00;1.10;;;24.10;90.70;;;;;;10216783;29;20079;-58
2022/06/18 22:41:57;;;;;;;6.45;1.30;;;24.00;90.70;;;;;;10202415;29;20051;-60
2022/06/18 22:47:03;;;;;;;8.27;1.70;;;23.90;90.90;;;;;;10209242;28;20048;-63
2022/06/18 22:52:06;;;;;;;7.93;1.20;;;23.80;91.10;;;;;;10216306;29;20066;-63
2022/06/18 22:57:08;;;;;;;5.18;1.40;;;23.70;91.10;;;;;;10213982;29;20114;-63
2022/06/18 23:02:10;;;;;;;6.85;1.52;;;23.60;91.60;;;;;;10218014;29;20051;-63
2022/06/18 23:07:14;;;;;;;6.65;1.98;;;23.50;92.00;;;;;;10217241;29;20083;-63
2022/06/18 23:12:17;;;;;;;11.55;1.25;;;23.40;92.00;;;;;;10220183;29;20529;-63
2022/06/18 23:17:24;;;;;;;7.40;1.10;;;23.40;92.40;;;;;;10213729;28;20044;-63
2022/06/18 23:22:26;;;;;;;8.60;1.20;;;23.10;92.80;;;;;;10219208;29;20051;-62
2022/06/18 23:27:28;;;;;;;8.07;1.65;;;23.00;92.90;;;;;;10219379;29;20063;-61
2022/06/18 23:32:30;;;;;;;16.23;1.55;;;22.90;93.30;;;;;;10219815;29;20055;-61
2022/06/18 23:37:36;;;;;;;6.78;1.40;;;22.80;93.60;;;;;;10214803;28;20514;-61
2022/06/18 23:42:38;;;;;;;5.65;1.23;;;22.80;93.70;;;;;;10216798;29;20047;-61
2022/06/18 23:47:40;;;;;;;7.97;1.17;;;22.80;93.60;;;;;;10217958;29;20055;-61
2022/06/18 23:52:41;;;;;;;12.43;1.00;;;22.60;93.90;;;;;;10218117;29;20529;-61
2022/06/18 23:57:43;;;;;;;9.57;1.40;;;22.60;94.00;;;;;;10211656;28;20522;-61
